createdAt,value
2018-10-05T00:02:06.299Z,4.70
2018-10-05T00:04:33.819Z,5.08
2018-10-05T00:07:01.236Z,4.77
2018-10-05T00:09:28.723Z,4.95
2018-10-05T00:11:56.149Z,4.87
2018-10-05T00:14:23.574Z,5.27
2018-10-05T00:16:50.999Z,4.97
2018-10-05T00:19:18.486Z,4.70
2018-10-05T00:21:45.915Z,5.50
2018-10-05T00:24:13.338Z,5.22
2018-10-05T00:26:40.807Z,6.10
2018-10-05T00:29:08.219Z,5.10
2018-10-05T00:31:35.649Z,4.90
2018-10-05T00:34:03.060Z,5.25
2018-10-05T00:36:30.551Z,4.73
2018-10-05T00:38:57.975Z,5.03
2018-10-05T00:41:25.390Z,5.13
2018-10-05T00:43:52.816Z,5.10
2018-10-05T00:46:20.238Z,5.13
2018-10-05T00:48:47.658Z,4.87
2018-10-05T00:51:15.099Z,4.87
2018-10-05T00:53:42.521Z,4.87
2018-10-05T00:56:09.944Z,5.37
2018-10-05T00:58:37.359Z,6.07
2018-10-05T01:01:04.778Z,5.00
2018-10-05T01:03:32.211Z,4.87
2018-10-05T01:05:59.906Z,5.17
2018-10-05T01:08:27.513Z,5.47
2018-10-05T01:10:54.939Z,5.70
2018-10-05T01:13:22.365Z,5.83
2018-10-05T01:15:49.799Z,6.20
2018-10-05T01:18:18.939Z,5.70
2018-10-05T01:20:46.359Z,5.63
2018-10-05T01:23:13.771Z,5.50
2018-10-05T01:25:41.195Z,6.37
2018-10-05T01:28:08.611Z,6.10
2018-10-05T01:30:36.023Z,6.40
2018-10-05T01:33:03.447Z,5.80
2018-10-05T01:35:30.867Z,6.20
2018-10-05T01:37:58.327Z,5.93
2018-10-05T01:40:25.750Z,5.87
2018-10-05T01:42:53.164Z,5.05
2018-10-05T01:45:20.593Z,5.87
2018-10-05T01:47:47.994Z,5.53
2018-10-05T01:50:15.394Z,5.23
2018-10-05T01:52:42.809Z,5.70
2018-10-05T01:55:10.218Z,5.70
2018-10-05T01:57:37.638Z,5.77
2018-10-05T02:00:05.067Z,5.27
2018-10-05T02:02:32.499Z,6.13
2018-10-05T02:04:59.943Z,5.57
2018-10-05T02:07:27.363Z,6.15
2018-10-05T02:09:54.780Z,6.20
2018-10-05T02:12:22.191Z,5.78
2018-10-05T02:14:49.603Z,5.70
2018-10-05T02:17:17.026Z,6.03
2018-10-05T02:19:44.439Z,5.73
2018-10-05T02:22:11.864Z,5.70
2018-10-05T02:24:39.281Z,6.37
2018-10-05T02:27:06.703Z,6.17
2018-10-05T02:29:34.132Z,6.00
2018-10-05T02:32:01.548Z,5.78
2018-10-05T02:34:28.966Z,6.23
2018-10-05T02:36:56.380Z,5.70
2018-10-05T02:39:23.794Z,5.43
2018-10-05T02:41:51.396Z,5.58
2018-10-05T02:44:18.627Z,5.43
2018-10-05T02:46:46.048Z,5.33
2018-10-05T02:49:13.470Z,5.77
2018-10-05T02:51:40.875Z,5.67
2018-10-05T02:54:08.290Z,5.50
2018-10-05T02:56:35.719Z,5.58
2018-10-05T02:59:03.138Z,6.33
2018-10-05T03:01:30.542Z,5.80
2018-10-05T03:03:57.963Z,5.77
2018-10-05T03:06:25.382Z,5.93
2018-10-05T03:08:52.799Z,5.67
2018-10-05T03:11:20.219Z,6.53
2018-10-05T03:13:47.739Z,6.30
2018-10-05T03:16:15.197Z,6.12
2018-10-05T03:18:42.656Z,6.53
2018-10-05T03:21:10.143Z,6.78
2018-10-05T03:23:37.642Z,6.63
2018-10-05T03:26:05.070Z,5.92
2018-10-05T03:28:32.480Z,5.77
2018-10-05T03:30:59.886Z,5.75
2018-10-05T03:33:27.397Z,5.77
2018-10-05T03:35:54.811Z,5.47
2018-10-05T03:38:22.239Z,6.57
2018-10-05T03:40:49.668Z,6.53
2018-10-05T03:43:17.091Z,5.57
2018-10-05T03:45:44.504Z,5.80
2018-10-05T03:48:11.942Z,6.03
2018-10-05T03:50:39.371Z,6.20
2018-10-05T03:53:06.783Z,6.10
2018-10-05T03:55:34.208Z,6.03
2018-10-05T03:58:01.653Z,6.93
2018-10-05T04:00:29.127Z,5.60
2018-10-05T04:02:56.516Z,6.50
2018-10-05T04:05:23.943Z,6.33
2018-10-05T04:07:51.376Z,6.17
2018-10-05T04:10:18.787Z,5.47
2018-10-05T04:12:46.200Z,6.10
2018-10-05T04:15:13.611Z,5.90
2018-10-05T04:17:41.031Z,6.67
2018-10-05T04:20:08.451Z,6.37
2018-10-05T04:25:09.631Z,6.13
2018-10-05T04:27:37.061Z,5.80
2018-10-05T04:30:04.491Z,6.37
2018-10-05T04:32:31.912Z,8.20
2018-10-05T04:34:59.377Z,6.50
2018-10-05T04:37:26.829Z,6.30
2018-10-05T04:39:54.269Z,6.30
2018-10-05T04:42:21.686Z,6.80
2018-10-05T04:44:49.268Z,6.93
2018-10-05T04:47:16.702Z,6.15
2018-10-05T04:49:44.171Z,6.40
2018-10-05T04:52:11.531Z,6.55
2018-10-05T04:54:38.943Z,6.40
2018-10-05T04:57:06.383Z,7.23
2018-10-05T04:59:33.911Z,6.33
2018-10-05T05:02:01.476Z,6.70
2018-10-05T05:04:28.888Z,6.17
2018-10-05T05:06:56.407Z,6.73
2018-10-05T05:09:23.812Z,6.93
2018-10-05T05:11:51.307Z,6.53
2018-10-05T05:14:18.727Z,7.08
2018-10-05T05:16:46.135Z,7.23
2018-10-05T05:19:13.609Z,6.97
2018-10-05T05:21:41.014Z,6.97
2018-10-05T05:24:08.439Z,7.30
2018-10-05T05:26:35.856Z,6.53
2018-10-05T05:29:03.288Z,6.40
2018-10-05T05:31:30.691Z,6.83
2018-10-05T05:33:58.192Z,7.25
2018-10-05T05:36:25.545Z,6.57
2018-10-05T05:38:52.959Z,6.80
2018-10-05T05:41:20.387Z,7.17
2018-10-05T05:43:47.879Z,7.23
2018-10-05T05:46:15.331Z,7.57
2018-10-05T05:48:42.754Z,7.20
2018-10-05T05:51:10.163Z,7.10
2018-10-05T05:53:37.676Z,7.25
2018-10-05T05:56:05.091Z,7.60
2018-10-05T05:58:32.519Z,7.20
2018-10-05T06:01:04.167Z,7.00
2018-10-05T06:03:31.631Z,6.57
2018-10-05T06:05:59.093Z,7.25
2018-10-05T06:08:26.555Z,6.97
2018-10-05T06:10:53.966Z,7.85
2018-10-05T06:13:21.391Z,7.37
2018-10-05T06:15:48.854Z,7.53
2018-10-05T06:18:16.223Z,6.70
2018-10-05T06:20:43.644Z,7.23
2018-10-05T06:23:11.104Z,7.73
2018-10-05T06:25:38.534Z,7.53
2018-10-05T06:28:06.010Z,7.37
2018-10-05T06:30:33.489Z,6.75
2018-10-05T06:33:00.882Z,6.77
2018-10-05T06:35:28.272Z,7.03
2018-10-05T06:37:55.749Z,7.13
2018-10-05T06:40:23.099Z,8.08
2018-10-05T06:42:50.507Z,7.40
2018-10-05T06:45:17.926Z,6.87
2018-10-05T06:47:45.350Z,7.10
2018-10-05T06:50:12.768Z,7.50
2018-10-05T06:52:40.217Z,6.43
2018-10-05T06:55:07.638Z,6.28
2018-10-05T06:57:35.063Z,6.63
2018-10-05T07:00:02.472Z,6.22
2018-10-05T07:02:29.903Z,7.03
2018-10-05T07:04:57.335Z,6.97
2018-10-05T07:07:24.808Z,6.27
2018-10-05T07:09:52.175Z,6.72
2018-10-05T07:12:19.592Z,6.10
2018-10-05T07:14:47.187Z,5.87
2018-10-05T07:17:14.643Z,5.60
2018-10-05T07:19:42.097Z,5.55
2018-10-05T07:22:09.503Z,5.73
2018-10-05T07:24:36.936Z,5.60
2018-10-05T07:27:04.358Z,5.87
2018-10-05T07:29:31.791Z,5.90
2018-10-05T07:31:59.288Z,5.77
2018-10-05T07:34:26.710Z,5.22
2018-10-05T07:36:54.165Z,6.00
2018-10-05T07:39:21.550Z,5.47
2018-10-05T07:41:49.023Z,5.40
2018-10-05T07:44:16.474Z,5.78
2018-10-05T07:46:43.925Z,5.70
2018-10-05T07:49:11.347Z,5.13
2018-10-05T07:51:38.828Z,5.63
2018-10-05T07:54:06.194Z,6.58
2018-10-05T07:56:33.603Z,5.50
2018-10-05T07:59:01.129Z,5.35
2018-10-05T08:01:28.556Z,5.40
2018-10-05T08:03:55.992Z,5.50
2018-10-05T08:06:23.415Z,5.87
2018-10-05T08:08:50.855Z,5.20
2018-10-05T08:11:18.307Z,5.23
2018-10-05T08:13:45.763Z,5.33
2018-10-05T08:16:13.178Z,5.37
2018-10-05T08:18:40.603Z,5.37
2018-10-05T08:21:08.066Z,5.37
2018-10-05T08:23:35.535Z,5.60
2018-10-05T08:26:02.959Z,5.57
2018-10-05T08:28:30.380Z,6.08
2018-10-05T08:30:57.811Z,5.50
2018-10-05T08:33:25.267Z,5.37
2018-10-05T08:35:52.679Z,4.70
2018-10-05T08:38:20.094Z,5.65
2018-10-05T08:40:47.599Z,5.30
2018-10-05T08:43:15.017Z,5.40
2018-10-05T08:45:42.447Z,5.57
2018-10-05T08:48:09.858Z,5.57
2018-10-05T08:50:37.291Z,4.67
2018-10-05T08:53:04.723Z,5.47
2018-10-05T08:55:32.234Z,5.53
2018-10-05T08:57:59.646Z,5.55
2018-10-05T09:00:27.195Z,5.03
2018-10-05T09:02:54.527Z,5.80
2018-10-05T09:05:21.947Z,5.00
2018-10-05T09:07:49.367Z,5.08
2018-10-05T09:10:16.784Z,5.30
2018-10-05T09:12:44.208Z,4.75
2018-10-05T09:15:11.627Z,5.63
2018-10-05T09:17:39.114Z,5.47
2018-10-05T09:20:06.476Z,5.17
2018-10-05T09:22:33.964Z,5.10
2018-10-05T09:25:01.403Z,5.33
2018-10-05T09:27:28.823Z,4.97
2018-10-05T09:29:56.222Z,5.17
2018-10-05T09:32:23.635Z,4.93
2018-10-05T09:34:51.063Z,5.10
2018-10-05T09:37:18.627Z,4.53
2018-10-05T09:39:46.026Z,5.23
2018-10-05T09:42:13.451Z,4.90
2018-10-05T09:44:40.887Z,4.90
2018-10-05T09:47:08.299Z,4.97
2018-10-05T09:49:35.727Z,4.83
2018-10-05T09:52:03.170Z,4.50
2018-10-05T09:54:30.551Z,4.00
2018-10-05T09:56:57.962Z,4.30
2018-10-05T09:59:25.415Z,3.90
2018-10-05T10:01:57.024Z,4.22
2018-10-05T10:04:24.436Z,5.20
2018-10-05T10:06:51.851Z,4.43
2018-10-05T10:09:19.270Z,4.40
2018-10-05T10:11:46.686Z,4.33
2018-10-05T10:14:14.227Z,5.03
2018-10-05T10:16:41.642Z,4.08
2018-10-05T10:19:09.050Z,4.40
2018-10-05T10:21:36.473Z,4.33
2018-10-05T10:24:03.891Z,3.90
2018-10-05T10:26:31.336Z,4.20
2018-10-05T10:28:58.844Z,4.17
2018-10-05T10:31:26.261Z,4.20
2018-10-05T10:33:53.710Z,4.27
2018-10-05T10:36:21.151Z,4.33
2018-10-05T10:38:49.007Z,3.87
2018-10-05T10:41:16.435Z,3.87
2018-10-05T10:43:43.843Z,4.00
2018-10-05T10:46:11.267Z,4.53
2018-10-05T10:48:38.688Z,4.55
2018-10-05T10:51:06.100Z,3.43
2018-10-05T10:53:33.576Z,3.67
2018-10-05T10:56:00.999Z,4.00
2018-10-05T10:58:28.419Z,4.33
2018-10-05T11:00:55.848Z,4.30
2018-10-05T11:03:23.267Z,3.70
2018-10-05T11:05:50.687Z,4.03
2018-10-05T11:08:18.095Z,3.87
2018-10-05T11:10:45.518Z,4.10
2018-10-05T11:13:12.936Z,3.80
2018-10-05T11:15:40.360Z,4.23
2018-10-05T11:18:07.775Z,3.70
2018-10-05T11:20:35.208Z,3.43
2018-10-05T11:23:02.721Z,3.53
2018-10-05T11:25:30.103Z,2.97
2018-10-05T11:27:57.519Z,4.08
2018-10-05T11:30:25.036Z,3.57
2018-10-05T11:32:52.455Z,3.55
2018-10-05T11:35:19.875Z,3.43
2018-10-05T11:37:47.305Z,3.67
2018-10-05T11:40:14.764Z,3.40
2018-10-05T11:42:42.272Z,3.47
2018-10-05T11:45:09.695Z,3.63
2018-10-05T11:47:37.114Z,3.80
2018-10-05T11:50:04.596Z,3.13
2018-10-05T11:52:32.112Z,3.17
2018-10-05T11:54:59.415Z,3.13
2018-10-05T11:57:26.861Z,3.30
2018-10-05T11:59:54.347Z,3.43
2018-10-05T12:02:21.688Z,3.17
2018-10-05T12:04:49.100Z,3.53
2018-10-05T12:07:16.523Z,3.63
2018-10-05T12:09:43.943Z,3.80
2018-10-05T12:12:11.415Z,3.00
2018-10-05T12:14:38.839Z,3.20
2018-10-05T12:17:06.331Z,3.20
2018-10-05T12:19:33.771Z,4.10
2018-10-05T12:22:01.203Z,3.25
2018-10-05T12:24:28.627Z,3.50
2018-10-05T12:26:56.045Z,2.85
2018-10-05T12:29:23.467Z,3.07
2018-10-05T12:31:50.890Z,3.33
2018-10-05T12:34:18.299Z,3.33
2018-10-05T12:36:45.716Z,3.33
2018-10-05T12:39:13.147Z,3.40
2018-10-05T12:41:40.555Z,3.60
2018-10-05T12:44:08.419Z,3.77
2018-10-05T12:46:36.194Z,3.80
2018-10-05T12:49:03.635Z,2.90
2018-10-05T12:51:31.082Z,3.00
2018-10-05T12:53:58.496Z,2.57
2018-10-05T12:56:25.904Z,2.87
2018-10-05T12:58:53.331Z,2.93
2018-10-05T13:01:21.030Z,3.10
2018-10-05T13:03:48.480Z,3.30
2018-10-05T13:06:15.955Z,3.30
2018-10-05T13:08:43.376Z,3.10
2018-10-05T13:11:10.796Z,4.13
2018-10-05T13:13:38.207Z,3.20
2018-10-05T13:16:05.642Z,3.10
2018-10-05T13:18:33.065Z,3.00
2018-10-05T13:21:00.487Z,3.00
2018-10-05T13:23:27.913Z,3.20
2018-10-05T13:25:55.334Z,3.53
2018-10-05T13:28:22.837Z,3.20
2018-10-05T13:30:50.194Z,2.80
2018-10-05T13:33:17.595Z,3.25
2018-10-05T13:35:45.015Z,3.20
2018-10-05T13:38:12.442Z,3.17
2018-10-05T13:40:39.868Z,2.87
2018-10-05T13:43:07.290Z,3.60
2018-10-05T13:45:34.722Z,3.13
2018-10-05T13:48:02.143Z,3.47
2018-10-05T13:50:29.557Z,3.00
2018-10-05T13:52:56.968Z,2.80
2018-10-05T13:55:24.379Z,3.07
2018-10-05T13:57:51.798Z,3.10
2018-10-05T14:00:19.254Z,2.90
2018-10-05T14:02:46.747Z,3.12
2018-10-05T14:05:14.158Z,2.80
2018-10-05T14:07:41.570Z,2.77
2018-10-05T14:10:08.987Z,2.73
2018-10-05T14:12:36.396Z,3.00
2018-10-05T14:15:03.832Z,3.30
2018-10-05T14:17:31.259Z,2.87
2018-10-05T14:19:58.693Z,2.90
2018-10-05T14:22:26.148Z,3.10
2018-10-05T14:24:53.559Z,3.23
2018-10-05T14:27:20.979Z,2.83
2018-10-05T14:29:48.525Z,2.93
2018-10-05T14:32:15.944Z,3.17
2018-10-05T14:34:43.357Z,2.93
2018-10-05T14:37:10.762Z,3.05
2018-10-05T14:39:38.187Z,3.03
2018-10-05T14:42:05.605Z,3.30
2018-10-05T14:44:33.027Z,3.23
2018-10-05T14:47:00.443Z,3.08
2018-10-05T14:49:27.944Z,3.27
2018-10-05T14:51:55.297Z,3.27
2018-10-05T14:54:22.707Z,3.20
2018-10-05T14:56:50.185Z,2.60
2018-10-05T14:59:17.811Z,3.40
2018-10-05T15:01:45.232Z,3.13
2018-10-05T15:04:12.639Z,3.23
2018-10-05T15:06:40.082Z,3.70
2018-10-05T15:09:07.539Z,3.13
2018-10-05T15:11:35.067Z,3.33
2018-10-05T15:14:02.626Z,4.15
2018-10-05T15:16:30.040Z,4.30
2018-10-05T15:18:57.455Z,4.47
2018-10-05T15:21:24.931Z,3.90
2018-10-05T15:23:52.294Z,3.75
2018-10-05T15:26:19.747Z,4.03
2018-10-05T15:28:47.196Z,4.10
2018-10-05T15:31:14.623Z,4.60
2018-10-05T15:33:42.047Z,4.17
2018-10-05T15:36:09.470Z,4.17
2018-10-05T15:38:36.895Z,4.33
2018-10-05T15:41:04.315Z,4.30
2018-10-05T15:43:31.911Z,4.33
2018-10-05T15:45:59.396Z,4.63
2018-10-05T15:48:26.823Z,4.83
2018-10-05T15:50:54.252Z,4.13
2018-10-05T15:53:21.775Z,4.17
2018-10-05T15:55:49.178Z,4.10
2018-10-05T15:58:16.699Z,4.70
2018-10-05T16:00:44.123Z,8.88
2018-10-05T16:03:11.555Z,4.20
2018-10-05T16:05:39.077Z,6.12
2018-10-05T16:08:06.378Z,4.43
2018-10-05T16:10:33.791Z,4.05
2018-10-05T16:13:01.207Z,4.33
2018-10-05T16:15:28.638Z,3.97
2018-10-05T16:17:56.055Z,4.50
2018-10-05T16:20:23.467Z,4.37
2018-10-05T16:22:50.884Z,4.43
2018-10-05T16:25:18.311Z,4.17
2018-10-05T16:27:45.723Z,4.30
2018-10-05T16:30:13.147Z,4.60
2018-10-05T16:32:40.565Z,4.70
2018-10-05T16:35:07.982Z,4.62
2018-10-05T16:37:35.410Z,4.20
2018-10-05T16:40:02.816Z,3.98
2018-10-05T16:42:30.320Z,3.80
2018-10-05T16:44:57.746Z,4.72
2018-10-05T16:47:25.166Z,4.33
2018-10-05T16:49:52.597Z,4.03
2018-10-05T16:52:20.020Z,3.73
2018-10-05T16:54:47.501Z,3.85
2018-10-05T16:57:14.975Z,4.20
2018-10-05T16:59:42.343Z,4.47
2018-10-05T17:02:09.782Z,4.00
2018-10-05T17:04:37.204Z,4.60
2018-10-05T17:07:04.599Z,3.63
2018-10-05T17:09:32.010Z,4.12
2018-10-05T17:11:59.427Z,4.77
2018-10-05T17:14:26.845Z,4.23
2018-10-05T17:16:54.259Z,4.70
2018-10-05T17:19:21.677Z,4.53
2018-10-05T17:21:49.095Z,4.60
2018-10-05T17:24:16.583Z,4.90
2018-10-05T17:26:43.998Z,6.23
2018-10-05T17:29:11.442Z,7.67
2018-10-05T17:31:38.851Z,6.03
2018-10-05T17:34:06.308Z,6.20
2018-10-05T17:36:33.716Z,5.07
2018-10-05T17:39:01.164Z,5.33
2018-10-05T17:41:28.575Z,4.90
2018-10-05T17:43:55.985Z,5.33
2018-10-05T17:46:23.403Z,4.77
2018-10-05T17:48:50.880Z,4.80
2018-10-05T17:51:18.310Z,4.63
2018-10-05T17:53:45.731Z,5.00
2018-10-05T17:56:13.216Z,4.73
2018-10-05T17:58:40.584Z,5.23
2018-10-05T18:01:08.207Z,4.57
2018-10-05T18:03:35.631Z,4.60
2018-10-05T18:06:03.063Z,6.10
2018-10-05T18:08:30.599Z,5.83
2018-10-05T18:10:58.024Z,5.03
2018-10-05T18:13:25.448Z,5.07
2018-10-05T18:15:52.863Z,4.83
2018-10-05T18:18:20.343Z,5.30
2018-10-05T18:20:47.767Z,5.60
2018-10-05T18:23:15.187Z,5.63
2018-10-05T18:25:42.599Z,5.30
2018-10-05T18:28:10.018Z,5.60
2018-10-05T18:30:37.435Z,6.83
2018-10-05T18:33:04.857Z,5.40
2018-10-05T18:35:32.343Z,5.28
2018-10-05T18:37:59.796Z,5.80
2018-10-05T18:40:27.224Z,6.20
2018-10-05T18:42:54.639Z,5.83
2018-10-05T18:45:22.047Z,6.30
2018-10-05T18:47:49.475Z,7.40
2018-10-05T18:50:16.954Z,8.05
2018-10-05T18:52:44.377Z,8.07
2018-10-05T18:55:11.791Z,8.03
2018-10-05T18:57:39.215Z,7.40
2018-10-05T19:00:06.678Z,7.97
2018-10-05T19:02:34.057Z,7.10
2018-10-05T19:05:01.479Z,6.47
2018-10-05T19:07:28.899Z,7.13
2018-10-05T19:09:56.336Z,6.67
2018-10-05T19:12:23.763Z,6.40
2018-10-05T19:14:51.196Z,5.97
2018-10-05T19:17:18.603Z,6.07
2018-10-05T19:19:46.031Z,6.00
2018-10-05T19:22:13.528Z,6.03
2018-10-05T19:24:40.979Z,5.42
2018-10-05T19:27:08.392Z,5.30
2018-10-05T19:29:35.832Z,6.20
2018-10-05T19:32:03.249Z,5.60
2018-10-05T19:34:30.708Z,5.83
2018-10-05T19:36:58.127Z,6.27
2018-10-05T19:39:25.538Z,5.80
2018-10-05T19:41:53.032Z,5.77
2018-10-05T19:44:20.411Z,5.85
2018-10-05T19:46:47.827Z,5.13
2018-10-05T19:49:15.343Z,6.78
2018-10-05T19:51:42.763Z,5.70
2018-10-05T19:54:10.180Z,5.75
2018-10-05T19:56:37.595Z,5.73
2018-10-05T19:59:05.014Z,5.73
2018-10-05T20:01:32.427Z,5.37
2018-10-05T20:03:59.904Z,5.90
2018-10-05T20:06:27.327Z,5.13
2018-10-05T20:08:54.814Z,4.90
2018-10-05T20:11:22.238Z,5.67
2018-10-05T20:13:49.667Z,5.20
2018-10-05T20:16:17.079Z,5.87
2018-10-05T20:18:44.539Z,5.45
2018-10-05T20:21:12.015Z,5.67
2018-10-05T20:23:39.619Z,5.90
2018-10-05T20:26:07.183Z,5.40
2018-10-05T20:28:34.683Z,5.17
2018-10-05T20:31:02.105Z,5.40
2018-10-05T20:33:29.717Z,5.60
2018-10-05T20:35:57.220Z,5.53
2018-10-05T20:38:24.550Z,5.83
2018-10-05T20:40:51.939Z,6.10
2018-10-05T20:43:19.415Z,5.60
2018-10-05T20:45:46.840Z,5.80
2018-10-05T20:48:14.251Z,5.80
2018-10-05T20:50:41.667Z,6.53
2018-10-05T20:53:09.092Z,6.20
2018-10-05T20:55:36.519Z,7.83
2018-10-05T20:58:03.939Z,7.83
2018-10-05T21:00:31.371Z,7.40
2018-10-05T21:02:58.788Z,7.30
2018-10-05T21:05:26.198Z,6.92
2018-10-05T21:07:53.611Z,6.97
2018-10-05T21:10:21.027Z,7.50
2018-10-05T21:12:48.443Z,9.40
2018-10-05T21:15:15.973Z,7.70
2018-10-05T21:17:43.291Z,6.37
2018-10-05T21:20:10.724Z,6.77
2018-10-05T21:22:38.139Z,5.87
2018-10-05T21:25:05.565Z,6.12
2018-10-05T21:27:33.043Z,6.40
2018-10-05T21:30:00.463Z,6.10
2018-10-05T21:32:27.876Z,5.83
2018-10-05T21:34:55.306Z,5.70
2018-10-05T21:37:22.716Z,6.20
2018-10-05T21:39:50.148Z,5.83
2018-10-05T21:42:17.564Z,6.60
2018-10-05T21:44:44.990Z,5.73
2018-10-05T21:47:12.407Z,6.17
2018-10-05T21:49:39.847Z,5.95
2018-10-05T21:52:07.275Z,6.10
2018-10-05T21:54:34.871Z,6.53
2018-10-05T21:57:02.299Z,6.00
2018-10-05T21:59:29.707Z,6.20
2018-10-05T22:01:57.130Z,6.03
2018-10-05T22:04:24.574Z,6.47
2018-10-05T22:06:51.990Z,6.83
2018-10-05T22:09:19.403Z,6.83
2018-10-05T22:11:46.871Z,6.70
2018-10-05T22:14:14.286Z,6.12
2018-10-05T22:16:41.702Z,6.07
2018-10-05T22:19:09.115Z,6.20
2018-10-05T22:21:36.541Z,7.10
2018-10-05T22:24:04.016Z,5.97
2018-10-05T22:26:31.427Z,6.63
2018-10-05T22:28:58.864Z,6.90
2018-10-05T22:31:26.331Z,5.77
2018-10-05T22:33:53.742Z,5.83
2018-10-05T22:36:21.173Z,5.73
2018-10-05T22:38:48.607Z,6.00
2018-10-05T22:41:16.055Z,6.30
2018-10-05T22:43:43.474Z,5.97
2018-10-05T22:46:10.889Z,6.40
2018-10-05T22:48:38.296Z,6.12
2018-10-05T22:51:05.787Z,6.50
2018-10-05T22:53:33.197Z,5.75
2018-10-05T22:56:00.623Z,6.40
2018-10-05T22:58:28.084Z,6.03
2018-10-05T23:00:55.459Z,6.50
2018-10-05T23:03:22.874Z,6.35
2018-10-05T23:05:50.323Z,6.13
2018-10-05T23:08:17.739Z,6.28
2018-10-05T23:10:45.168Z,6.10
2018-10-05T23:13:12.584Z,6.40
2018-10-05T23:15:39.995Z,5.93
2018-10-05T23:18:07.502Z,5.65
2018-10-05T23:20:34.914Z,5.90
2018-10-05T23:23:02.348Z,6.08
2018-10-05T23:25:29.783Z,5.43
2018-10-05T23:27:57.226Z,6.20
2018-10-05T23:30:24.657Z,6.50
2018-10-05T23:32:52.099Z,6.65
2018-10-05T23:35:19.607Z,5.77
2018-10-05T23:37:47.067Z,6.10
2018-10-05T23:40:14.486Z,6.40
2018-10-05T23:42:41.899Z,6.37
2018-10-05T23:45:09.319Z,6.07
2018-10-05T23:47:36.747Z,6.77
2018-10-05T23:50:04.160Z,5.53
2018-10-05T23:52:31.611Z,6.03
2018-10-05T23:54:59.024Z,6.93
2018-10-05T23:57:26.452Z,5.93
2018-10-05T23:59:53.875Z,6.70
